Time;durP1;ratioP1;P1;durP2;ratioP2;P2;SDS_P1;SDS_P2;PMS_P1;PMS_P2;Temp;Humidity;BMP_temperature;BMP_pressure;BME280_temperature;BME280_humidity;BME280_pressure;Samples;Min_cycle;Max_cycle;Signal;HPM_P1;HPM_P2
2022/11/15 00:00:47;;;;;;;25.40;18.47;;;7.80;99.90;;;;;;5016441;28;20843;-75
2022/11/15 00:03:26;;;;;;;26.97;20.43;;;7.80;99.90;;;;;;5015496;28;20289;-77
2022/11/15 00:05:52;;;;;;;26.13;20.80;;;7.80;99.90;;;;;;5016478;28;20057;-75
2022/11/15 00:08:18;;;;;;;27.87;21.70;;;7.70;99.90;;;;;;5016650;28;20289;-75
2022/11/15 00:10:53;;;;;;;29.97;21.40;;;7.70;99.90;;;;;;5015446;28;20513;-75
2022/11/15 00:13:19;;;;;;;29.73;21.60;;;7.70;99.90;;;;;;5017114;28;20049;-75
2022/11/15 00:15:44;;;;;;;27.97;21.03;;;7.80;99.90;;;;;;5016533;28;20368;-75
2022/11/15 00:18:13;;;;;;;26.30;19.90;;;7.70;99.90;;;;;;5016779;28;20046;-75
2022/11/15 00:20:39;;;;;;;26.93;20.57;;;7.80;99.90;;;;;;5016862;28;20054;-75
2022/11/15 00:23:05;;;;;;;25.77;19.37;;;7.80;99.90;;;;;;5016429;28;20296;-75
2022/11/15 00:25:31;;;;;;;25.57;21.30;;;7.80;99.90;;;;;;5016304;28;20057;-75
2022/11/15 00:27:58;;;;;;;26.00;19.73;;;7.80;99.90;;;;;;5017093;28;20052;-75
2022/11/15 00:30:24;;;;;;;25.57;19.57;;;7.80;99.90;;;;;;5016943;28;20284;-75
2022/11/15 00:32:50;;;;;;;28.00;20.70;;;7.90;99.90;;;;;;5015481;28;20622;-75
2022/11/15 00:35:16;;;;;;;23.83;19.00;;;7.80;99.90;;;;;;5016432;28;20291;-81
2022/11/15 00:37:42;;;;;;;24.07;18.17;;;7.90;99.90;;;;;;5016156;28;20482;-75
2022/11/15 00:40:08;;;;;;;23.33;17.73;;;7.90;99.90;;;;;;5016243;28;20046;-75
2022/11/15 00:42:34;;;;;;;24.93;19.07;;;7.90;99.90;;;;;;5014373;28;20046;-75
2022/11/15 00:45:00;;;;;;;24.67;18.03;;;7.90;99.90;;;;;;5016382;28;20288;-75
2022/11/15 00:47:25;;;;;;;22.93;18.00;;;7.90;99.90;;;;;;5014840;28;20196;-75
2022/11/15 00:49:51;;;;;;;23.23;18.33;;;8.00;99.90;;;;;;5014965;28;20512;-75
2022/11/15 00:52:17;;;;;;;22.53;18.57;;;8.00;99.90;;;;;;5016332;28;20089;-75
2022/11/15 00:54:43;;;;;;;22.83;17.67;;;8.00;99.90;;;;;;5031544;28;20056;-75
2022/11/15 00:57:08;;;;;;;22.73;18.67;;;8.00;99.90;;;;;;5015618;28;20057;-75
2022/11/15 00:59:34;;;;;;;25.73;18.90;;;8.00;99.90;;;;;;5014586;28;20045;-75
2022/11/15 01:02:00;;;;;;;25.13;19.30;;;8.00;99.90;;;;;;5014937;28;20136;-75
2022/11/15 01:04:26;;;;;;;23.73;19.90;;;7.90;99.90;;;;;;4998009;28;20057;-75
2022/11/15 01:06:52;;;;;;;22.67;18.70;;;8.00;99.90;;;;;;5016112;28;20277;-75
2022/11/15 01:09:18;;;;;;;25.00;20.13;;;7.90;99.90;;;;;;5014548;28;20313;-75
2022/11/15 01:11:44;;;;;;;23.80;19.13;;;8.00;99.90;;;;;;5015441;28;20038;-75
2022/11/15 01:14:09;;;;;;;25.60;20.07;;;8.00;99.90;;;;;;5015922;28;20050;-75
2022/11/15 01:16:35;;;;;;;25.30;19.60;;;8.00;99.90;;;;;;5015921;28;20050;-75
2022/11/15 01:19:01;;;;;;;27.90;20.37;;;8.00;99.90;;;;;;5015398;28;20486;-75
2022/11/15 01:21:27;;;;;;;25.57;19.83;;;8.00;99.90;;;;;;4997759;28;20471;-75
2022/11/15 01:23:54;;;;;;;25.83;20.93;;;8.00;99.90;;;;;;4998854;28;20054;-74
2022/11/15 01:26:21;;;;;;;26.00;21.47;;;8.00;99.90;;;;;;5015167;28;20050;-74
2022/11/15 01:28:46;;;;;;;26.23;20.80;;;8.00;99.90;;;;;;5015967;28;20388;-75
2022/11/15 01:31:20;;;;;;;27.17;20.20;;;8.00;99.90;;;;;;5015144;28;20808;-75
2022/11/15 01:33:47;;;;;;;25.50;20.87;;;8.00;99.90;;;;;;5016119;28;20053;-74
2022/11/15 01:36:22;;;;;;;25.60;21.20;;;7.90;99.90;;;;;;5015013;28;20285;-75
2022/11/15 01:38:55;;;;;;;27.57;21.83;;;7.90;99.90;;;;;;5015065;28;20339;-75
2022/11/15 01:41:24;;;;;;;29.30;22.33;;;8.00;99.90;;;;;;5013588;28;20359;-75
2022/11/15 01:43:53;;;;;;;29.57;21.97;;;7.90;99.90;;;;;;5014836;28;20765;-75
2022/11/15 01:46:24;;;;;;;26.57;20.87;;;7.90;99.90;;;;;;5013754;28;20827;-75
2022/11/15 01:48:53;;;;;;;26.00;20.40;;;7.80;99.90;;;;;;5013674;28;20296;-75
2022/11/15 01:51:23;;;;;;;29.10;20.67;;;7.80;99.90;;;;;;5015323;28;20338;-74
2022/11/15 01:53:54;;;;;;;26.63;19.53;;;7.80;99.90;;;;;;5014943;28;20338;-74
2022/11/15 01:56:27;;;;;;;27.40;20.60;;;7.80;99.90;;;;;;5015214;28;20284;-75
2022/11/15 01:58:56;;;;;;;25.27;20.10;;;7.70;99.90;;;;;;5015499;28;20360;-75
2022/11/15 02:01:24;;;;;;;28.23;20.53;;;7.70;99.90;;;;;;5015229;28;20391;-75
2022/11/15 02:03:58;;;;;;;27.23;19.70;;;7.70;99.90;;;;;;5014938;28;20292;-75
2022/11/15 02:06:25;;;;;;;26.90;19.88;;;7.70;99.90;;;;;;5013916;28;20300;-74
2022/11/15 02:08:51;;;;;;;24.67;19.03;;;7.70;99.90;;;;;;5014431;28;20052;-75
2022/11/15 02:11:17;;;;;;;25.33;19.23;;;7.60;99.90;;;;;;5014463;28;20313;-75
2022/11/15 02:13:43;;;;;;;27.77;19.03;;;7.60;99.90;;;;;;5013204;28;20336;-75
2022/11/15 02:16:13;;;;;;;25.27;18.63;;;7.70;99.90;;;;;;5014413;28;20060;-75
2022/11/15 02:18:50;;;;;;;25.50;19.20;;;7.60;99.90;;;;;;5015145;28;20367;-75
2022/11/15 02:21:49;;;;;;;23.00;18.43;;;7.70;99.90;;;;;;4996447;28;20392;-75
2022/11/15 02:24:36;;;;;;;27.20;18.97;;;7.60;99.90;;;;;;5014127;28;20297;-75
2022/11/15 02:27:17;;;;;;;26.67;18.77;;;7.70;99.90;;;;;;5013870;28;20292;-74
2022/11/15 02:30:02;;;;;;;25.63;19.40;;;7.70;99.90;;;;;;5013889;28;20748;-75
2022/11/15 02:32:38;;;;;;;27.08;19.00;;;7.70;99.90;;;;;;5014094;28;20292;-75
2022/11/15 02:35:09;;;;;;;28.87;20.37;;;7.70;99.90;;;;;;4996778;28;20116;-75
2022/11/15 02:37:52;;;;;;;29.33;19.60;;;7.60;99.90;;;;;;5013120;28;20301;-75
2022/11/15 02:40:34;;;;;;;29.40;20.40;;;7.70;99.90;;;;;;5014535;28;20304;-75
2022/11/15 02:46:19;;;;;;;27.07;19.63;;;7.70;99.90;;;;;;5014417;28;20279;-75
2022/11/15 02:48:46;;;;;;;30.87;20.50;;;7.70;99.90;;;;;;5013946;28;20355;-75
2022/11/15 02:51:13;;;;;;;29.70;20.77;;;7.70;99.90;;;;;;5012874;28;20343;-75
2022/11/15 02:53:39;;;;;;;30.00;20.57;;;7.70;99.90;;;;;;5013821;28;20292;-75
2022/11/15 02:56:05;;;;;;;31.60;20.63;;;7.80;99.90;;;;;;5012890;28;20285;-75
2022/11/15 02:58:52;;;;;;;32.17;21.67;;;7.70;99.90;;;;;;5012735;28;20046;-75
2022/11/15 03:01:36;;;;;;;29.87;20.20;;;7.80;99.90;;;;;;5014333;28;20068;-75
2022/11/15 03:04:23;;;;;;;31.83;21.90;;;7.70;99.90;;;;;;5014096;28;20289;-75
2022/11/15 03:07:06;;;;;;;34.10;21.47;;;7.80;99.90;;;;;;5017862;28;20380;-75
2022/11/15 03:10:03;;;;;;;33.03;21.10;;;7.80;99.90;;;;;;5017812;28;20281;-75
2022/11/15 03:12:45;;;;;;;31.53;20.70;;;7.80;99.90;;;;;;5007490;28;20329;-75
2022/11/15 03:15:21;;;;;;;33.40;21.30;;;7.80;99.90;;;;;;5017702;28;20752;-75
2022/11/15 03:18:20;;;;;;;34.77;21.07;;;7.80;99.90;;;;;;5016666;28;20769;-75
2022/11/15 03:20:48;;;;;;;33.70;22.20;;;7.90;99.90;;;;;;5008439;28;20435;-75
2022/11/15 03:23:13;;;;;;;35.53;21.10;;;7.90;99.90;;;;;;5016413;28;20280;-75
2022/11/15 03:25:47;;;;;;;37.40;23.30;;;7.80;99.90;;;;;;5016058;28;20292;-76
2022/11/15 03:28:20;;;;;;;36.07;22.80;;;7.80;99.90;;;;;;5016356;28;20050;-75
2022/11/15 03:30:48;;;;;;;38.93;22.30;;;7.90;99.90;;;;;;5017380;28;20273;-76
2022/11/15 03:33:14;;;;;;;40.90;23.77;;;7.90;99.90;;;;;;5016597;28;20285;-75
2022/11/15 03:35:44;;;;;;;41.33;23.03;;;7.90;99.90;;;;;;5015977;28;20680;-76
2022/11/15 03:38:29;;;;;;;43.17;25.53;;;7.90;99.90;;;;;;5000382;28;20056;-76
2022/11/15 03:40:59;;;;;;;41.70;25.38;;;7.90;99.90;;;;;;5015927;28;20308;-76
2022/11/15 03:43:40;;;;;;;42.17;23.97;;;7.90;99.90;;;;;;5016008;28;20056;-75
2022/11/15 03:46:19;;;;;;;42.37;24.13;;;7.90;99.90;;;;;;5016132;28;20808;-75
2022/11/15 03:49:04;;;;;;;43.63;24.17;;;7.90;99.90;;;;;;5016689;28;20669;-76
2022/11/15 03:51:30;;;;;;;43.10;24.13;;;7.90;99.90;;;;;;5016851;28;20327;-75
2022/11/15 03:53:55;;;;;;;47.33;25.90;;;8.00;99.90;;;;;;5016980;28;20292;-75
2022/11/15 03:56:21;;;;;;;46.73;25.73;;;8.00;99.90;;;;;;5017559;28;20332;-76
2022/11/15 03:58:47;;;;;;;46.77;27.13;;;7.90;99.90;;;;;;5015891;28;20153;-75
2022/11/15 04:01:12;;;;;;;47.70;25.73;;;7.90;99.90;;;;;;5016692;28;20042;-76
2022/11/15 04:03:38;;;;;;;51.13;26.43;;;8.00;99.90;;;;;;5015582;28;20165;-75
2022/11/15 04:06:04;;;;;;;51.00;26.40;;;8.00;99.90;;;;;;5016263;28;20057;-76
2022/11/15 04:08:30;;;;;;;47.30;25.50;;;8.00;99.90;;;;;;5015464;28;20085;-76
2022/11/15 04:10:55;;;;;;;50.07;27.13;;;8.00;99.90;;;;;;5015432;28;20064;-76
2022/11/15 04:13:21;;;;;;;51.83;27.10;;;8.00;99.90;;;;;;5016503;28;20045;-75
2022/11/15 04:15:47;;;;;;;45.60;25.43;;;8.00;99.90;;;;;;5016402;28;20052;-75
2022/11/15 04:18:12;;;;;;;52.73;27.07;;;8.00;99.90;;;;;;5015592;28;20045;-75
2022/11/15 04:26:25;;;;;;;48.72;25.80;;;8.10;99.90;;;;;;5002469;28;20297;-75
2022/11/15 04:31:35;;;;;;;58.63;28.63;;;8.10;99.90;;;;;;5015023;28;20300;-75
2022/11/15 04:34:01;;;;;;;55.30;27.40;;;8.10;99.90;;;;;;5015127;28;20284;-76
2022/11/15 04:39:10;;;;;;;53.17;27.10;;;8.20;99.90;;;;;;5015173;28;20084;-75
2022/11/15 04:41:36;;;;;;;45.33;25.77;;;8.20;99.90;;;;;;4998611;28;20345;-76
2022/11/15 04:44:02;;;;;;;46.03;25.00;;;8.20;99.90;;;;;;5016568;28;20077;-75
2022/11/15 04:46:28;;;;;;;53.63;26.53;;;8.20;99.90;;;;;;5015021;28;20381;-75
2022/11/15 04:48:54;;;;;;;52.67;27.57;;;8.20;99.90;;;;;;4998733;28;20049;-76
2022/11/15 04:51:20;;;;;;;55.57;26.40;;;8.30;99.90;;;;;;4998948;28;20071;-76
2022/11/15 04:53:46;;;;;;;51.57;27.23;;;8.30;99.90;;;;;;5015900;28;20285;-76
2022/11/15 04:56:12;;;;;;;55.00;28.20;;;8.30;99.90;;;;;;5014874;28;20677;-76
2022/11/15 04:58:38;;;;;;;52.30;27.07;;;8.30;99.90;;;;;;4998179;28;20046;-75
2022/11/15 05:01:14;;;;;;;59.83;29.93;;;8.30;99.90;;;;;;5031847;28;20519;-75
2022/11/15 05:06:24;;;;;;;64.18;29.67;;;8.40;99.90;;;;;;5015392;28;20292;-75
2022/11/15 05:08:50;;;;;;;60.27;30.07;;;8.40;99.90;;;;;;5015222;28;20053;-76
2022/11/15 05:11:16;;;;;;;61.40;29.53;;;8.40;99.90;;;;;;5015492;28;20108;-76
2022/11/15 05:13:41;;;;;;;67.17;33.10;;;8.50;99.90;;;;;;5015464;28;20042;-75
2022/11/15 05:16:07;;;;;;;53.83;29.50;;;8.50;99.90;;;;;;5015401;28;20501;-76
2022/11/15 05:18:33;;;;;;;62.33;31.47;;;8.50;99.90;;;;;;5015356;28;20135;-75
2022/11/15 05:21:07;;;;;;;55.47;28.87;;;8.50;99.90;;;;;;5014118;28;20049;-76
2022/11/15 05:23:32;;;;;;;67.00;33.30;;;8.60;99.90;;;;;;5015219;28;20053;-76
2022/11/15 05:26:07;;;;;;;64.00;31.83;;;8.60;99.90;;;;;;5013944;28;20285;-76
2022/11/15 05:28:33;;;;;;;67.15;31.45;;;8.60;99.90;;;;;;5014632;28;20060;-76
2022/11/15 05:31:04;;;;;;;61.77;31.27;;;8.60;99.90;;;;;;5015107;28;20049;-76
2022/11/15 05:33:30;;;;;;;61.83;32.40;;;8.70;99.90;;;;;;4997579;28;20296;-76
2022/11/15 05:36:04;;;;;;;65.33;31.90;;;8.70;99.90;;;;;;5014738;28;20753;-76
2022/11/15 05:38:29;;;;;;;54.83;32.23;;;8.70;99.90;;;;;;5015288;28;20303;-76
2022/11/15 05:40:55;;;;;;;60.33;31.30;;;8.70;99.90;;;;;;4997109;28;20304;-76
2022/11/15 05:43:22;;;;;;;66.23;35.00;;;8.80;99.90;;;;;;5014550;28;20288;-76
2022/11/15 05:45:48;;;;;;;79.10;35.23;;;8.90;99.90;;;;;;5014777;28;20132;-76
2022/11/15 05:48:14;;;;;;;91.83;38.20;;;8.80;99.90;;;;;;5014065;28;20297;-76
2022/11/15 05:50:43;;;;;;;71.93;35.60;;;9.00;99.90;;;;;;5013566;28;20272;-76
2022/11/15 05:53:10;;;;;;;79.40;37.90;;;9.00;99.90;;;;;;5013759;28;20301;-76
2022/11/15 05:55:38;;;;;;;86.63;38.80;;;9.00;99.90;;;;;;5030030;28;20280;-76
2022/11/15 05:58:04;;;;;;;80.57;37.23;;;9.00;99.90;;;;;;5013729;28;20293;-76
2022/11/15 06:00:30;;;;;;;92.27;40.60;;;9.10;99.90;;;;;;5013665;28;20300;-76
2022/11/15 06:02:55;;;;;;;100.73;40.50;;;9.10;99.90;;;;;;5013432;28;20401;-76
2022/11/15 06:05:21;;;;;;;96.20;40.03;;;9.10;99.90;;;;;;5014878;28;20069;-76
2022/11/15 06:07:47;;;;;;;87.43;40.37;;;9.10;99.90;;;;;;5013301;28;20054;-76
2022/11/15 06:10:12;;;;;;;81.70;36.97;;;9.20;99.90;;;;;;4996651;28;20049;-76
2022/11/15 06:12:38;;;;;;;76.80;37.97;;;9.20;99.90;;;;;;5013364;28;20054;-76
2022/11/15 06:15:04;;;;;;;87.40;37.63;;;9.20;99.90;;;;;;5015453;28;20072;-76
2022/11/15 06:17:30;;;;;;;85.27;40.43;;;9.20;99.90;;;;;;5014343;28;20133;-76
2022/11/15 06:19:56;;;;;;;82.17;39.23;;;9.30;99.90;;;;;;5014305;28;20372;-76
2022/11/15 06:22:21;;;;;;;85.83;37.93;;;9.30;99.90;;;;;;5013397;28;20050;-76
2022/11/15 06:24:47;;;;;;;79.57;39.40;;;9.30;99.90;;;;;;5013599;28;20479;-76
2022/11/15 06:27:12;;;;;;;86.53;39.50;;;9.40;99.90;;;;;;5013224;28;20046;-76
2022/11/15 06:29:38;;;;;;;80.57;37.30;;;9.40;99.90;;;;;;5012990;28;20042;-76
2022/11/15 06:32:04;;;;;;;82.33;39.03;;;9.40;99.90;;;;;;5013089;28;20041;-76
2022/11/15 06:34:30;;;;;;;89.57;40.13;;;9.50;99.90;;;;;;4996623;28;20111;-76
2022/11/15 06:36:55;;;;;;;95.57;42.30;;;9.50;99.90;;;;;;5014842;28;20050;-76
2022/11/15 06:39:21;;;;;;;83.87;40.47;;;9.50;99.90;;;;;;5011513;28;20413;-76
2022/11/15 06:41:47;;;;;;;95.23;41.77;;;9.60;99.90;;;;;;5012795;28;20037;-76
2022/11/15 06:44:12;;;;;;;84.73;38.67;;;9.60;99.90;;;;;;5014035;28;20045;-76
2022/11/15 06:46:38;;;;;;;78.80;38.83;;;9.60;99.90;;;;;;5014500;28;20133;-76
2022/11/15 06:49:04;;;;;;;85.10;39.33;;;9.60;99.90;;;;;;5013884;28;20042;-76
2022/11/15 06:51:29;;;;;;;78.80;37.47;;;9.60;99.90;;;;;;5029139;28;20050;-76
2022/11/15 06:53:55;;;;;;;86.60;38.40;;;9.60;99.90;;;;;;5013657;28;20057;-76
2022/11/15 06:56:21;;;;;;;89.43;40.87;;;9.70;99.90;;;;;;5013841;28;20046;-76
2022/11/15 06:58:46;;;;;;;91.10;41.17;;;9.70;99.90;;;;;;5012859;28;20045;-76
2022/11/15 07:01:13;;;;;;;78.03;39.37;;;9.70;99.90;;;;;;4996348;28;20099;-76
2022/11/15 07:03:41;;;;;;;79.67;40.70;;;9.70;99.90;;;;;;5013868;28;20046;-76
2022/11/15 07:06:08;;;;;;;79.37;39.87;;;9.70;99.90;;;;;;5014349;28;20289;-77
2022/11/15 07:08:34;;;;;;;86.30;39.73;;;9.80;99.90;;;;;;5013775;28;20285;-76
2022/11/15 07:11:03;;;;;;;79.67;38.93;;;9.80;99.90;;;;;;5013527;28;20757;-76
2022/11/15 07:13:32;;;;;;;86.50;40.93;;;9.80;99.90;;;;;;5013700;28;20281;-76
2022/11/15 07:16:01;;;;;;;76.93;39.67;;;9.90;99.90;;;;;;5014218;28;20277;-76
2022/11/15 07:18:27;;;;;;;82.37;40.70;;;9.90;99.90;;;;;;4997062;28;20289;-76
2022/11/15 07:20:53;;;;;;;81.27;43.20;;;9.90;99.90;;;;;;5013596;28;20297;-76
2022/11/15 07:23:18;;;;;;;82.43;40.10;;;9.90;99.90;;;;;;5013630;28;20046;-76
2022/11/15 07:25:44;;;;;;;75.07;41.57;;;9.90;99.90;;;;;;4996377;28;20088;-76
2022/11/15 07:28:10;;;;;;;70.30;39.57;;;9.90;99.90;;;;;;5013527;28;20409;-76
2022/11/15 07:30:35;;;;;;;65.37;38.60;;;10.00;99.90;;;;;;5014391;28;20046;-76
2022/11/15 07:33:01;;;;;;;77.40;39.23;;;9.90;99.90;;;;;;5012608;28;20038;-76
2022/11/15 07:35:28;;;;;;;70.97;39.73;;;10.00;99.90;;;;;;5012953;28;20378;-77
2022/11/15 07:38:03;;;;;;;62.93;35.27;;;10.00;99.90;;;;;;4996412;28;20137;-76
2022/11/15 07:40:31;;;;;;;67.80;37.58;;;10.00;99.90;;;;;;5013038;28;20705;-76
2022/11/15 07:43:05;;;;;;;68.53;36.97;;;10.00;99.90;;;;;;5012496;28;20398;-76
2022/11/15 07:45:35;;;;;;;66.33;38.07;;;10.00;99.90;;;;;;5013403;28;20363;-76
2022/11/15 07:48:01;;;;;;;65.90;37.87;;;10.10;99.90;;;;;;5014060;28;20284;-76
2022/11/15 07:50:29;;;;;;;69.60;37.57;;;10.10;99.90;;;;;;5029227;28;20292;-76
2022/11/15 07:52:56;;;;;;;61.17;36.63;;;10.10;99.90;;;;;;5000635;28;20053;-76
2022/11/15 07:55:28;;;;;;;65.40;36.33;;;10.10;99.90;;;;;;5016934;28;20281;-76
2022/11/15 07:57:59;;;;;;;58.33;33.30;;;10.10;99.90;;;;;;5016766;28;20368;-76
2022/11/15 08:00:25;;;;;;;61.10;37.40;;;10.20;99.90;;;;;;5017672;28;20340;-76
2022/11/15 08:02:51;;;;;;;59.20;34.80;;;10.20;99.90;;;;;;5015925;28;20795;-76
2022/11/15 08:05:16;;;;;;;54.37;33.87;;;10.20;99.90;;;;;;5015170;28;20068;-76
2022/11/15 08:07:42;;;;;;;54.90;33.67;;;10.20;99.90;;;;;;5016793;28;20065;-76
2022/11/15 08:10:08;;;;;;;53.97;32.80;;;10.20;99.90;;;;;;5015740;28;20046;-76
2022/11/15 08:12:34;;;;;;;52.80;33.77;;;10.30;99.90;;;;;;5016640;28;20049;-76
2022/11/15 08:15:00;;;;;;;52.40;35.53;;;10.30;99.90;;;;;;5015429;28;20050;-76
2022/11/15 08:17:26;;;;;;;56.43;34.57;;;10.30;99.90;;;;;;5015245;28;20296;-76
2022/11/15 08:19:51;;;;;;;56.30;34.57;;;10.30;99.90;;;;;;5016504;28;20041;-76
2022/11/15 08:22:17;;;;;;;54.60;35.70;;;10.30;99.90;;;;;;5015314;28;20542;-76
2022/11/15 08:24:44;;;;;;;51.20;34.03;;;10.30;99.90;;;;;;5016330;28;20101;-76
2022/11/15 08:27:14;;;;;;;49.87;32.60;;;10.40;99.90;;;;;;5016454;28;20361;-76
2022/11/15 08:29:44;;;;;;;49.33;33.67;;;10.40;99.90;;;;;;5015599;28;20292;-77
2022/11/15 08:32:10;;;;;;;48.33;33.63;;;10.50;99.90;;;;;;5016345;28;20659;-76
2022/11/15 08:34:37;;;;;;;51.33;31.70;;;10.50;99.90;;;;;;5015255;28;20776;-76
2022/11/15 08:37:03;;;;;;;47.10;31.93;;;10.60;99.90;;;;;;5016220;28;20396;-76
2022/11/15 08:39:29;;;;;;;52.37;32.93;;;10.60;99.90;;;;;;5015202;28;20289;-76
2022/11/15 08:41:55;;;;;;;47.07;31.17;;;10.70;99.90;;;;;;5016072;28;20795;-76
2022/11/15 08:44:21;;;;;;;45.43;31.17;;;10.70;99.90;;;;;;5016076;28;20064;-77
2022/11/15 08:46:46;;;;;;;43.07;30.73;;;10.70;99.90;;;;;;5014550;28;20133;-77
2022/11/15 08:49:12;;;;;;;41.40;31.43;;;10.70;99.90;;;;;;5014841;28;20080;-76
2022/11/15 08:51:38;;;;;;;42.93;30.47;;;10.70;99.90;;;;;;5014755;28;20386;-76
2022/11/15 08:54:03;;;;;;;41.53;29.53;;;10.80;99.90;;;;;;4998227;28;20049;-75
2022/11/15 08:56:29;;;;;;;45.27;32.73;;;10.80;99.90;;;;;;5014702;28;20050;-75
2022/11/15 08:58:55;;;;;;;47.10;30.03;;;10.80;99.90;;;;;;4999043;28;20378;-75
2022/11/15 09:01:21;;;;;;;45.20;31.87;;;10.90;99.90;;;;;;5016161;28;20533;-76
2022/11/15 09:03:47;;;;;;;39.20;30.30;;;10.90;99.90;;;;;;5014789;28;20060;-76
2022/11/15 09:06:13;;;;;;;46.20;30.50;;;10.90;99.90;;;;;;5014268;28;20301;-76
2022/11/15 09:08:39;;;;;;;40.97;28.17;;;10.90;99.90;;;;;;5014684;28;20095;-76
2022/11/15 09:11:06;;;;;;;44.87;29.77;;;11.00;99.90;;;;;;5015907;28;20281;-76
2022/11/15 09:13:32;;;;;;;39.47;26.83;;;11.00;99.90;;;;;;5015500;28;20100;-76
2022/11/15 09:15:59;;;;;;;38.60;27.60;;;11.00;99.90;;;;;;5016048;28;20367;-77
2022/11/15 09:18:25;;;;;;;43.30;28.20;;;11.00;99.90;;;;;;5014737;28;20046;-77
2022/11/15 09:20:50;;;;;;;39.83;27.37;;;11.00;99.90;;;;;;5015359;28;20394;-76
2022/11/15 09:23:16;;;;;;;42.17;28.87;;;11.00;99.90;;;;;;5015326;28;20312;-75
2022/11/15 09:25:42;;;;;;;42.30;28.63;;;11.00;99.90;;;;;;5015226;28;20394;-74
2022/11/15 09:28:08;;;;;;;38.27;27.20;;;11.00;99.90;;;;;;4998311;28;20053;-75
2022/11/15 09:30:34;;;;;;;37.67;27.37;;;11.00;99.90;;;;;;5015167;28;20042;-75
2022/11/15 09:33:10;;;;;;;39.23;25.67;;;11.10;99.90;;;;;;5015023;28;20436;-75
2022/11/15 09:35:35;;;;;;;38.40;27.30;;;11.10;99.90;;;;;;5015972;28;20050;-76
2022/11/15 09:38:02;;;;;;;36.73;25.97;;;11.10;99.90;;;;;;5013911;28;20922;-75
2022/11/15 09:40:29;;;;;;;41.37;27.03;;;11.20;99.90;;;;;;4997408;28;20073;-76
2022/11/15 09:43:25;;;;;;;32.93;24.87;;;11.20;99.90;;;;;;5014034;28;20289;-75
2022/11/15 09:46:13;;;;;;;35.60;25.20;;;11.30;99.90;;;;;;5015083;28;20273;-77
2022/11/15 09:49:00;;;;;;;35.10;25.37;;;11.30;99.90;;;;;;5013895;28;20064;-77
2022/11/15 09:51:36;;;;;;;38.50;26.07;;;11.30;99.90;;;;;;5015319;28;20590;-77
2022/11/15 09:54:11;;;;;;;30.43;23.13;;;11.30;99.90;;;;;;5015135;28;20280;-75
2022/11/15 09:56:41;;;;;;;35.13;24.65;;;11.40;99.90;;;;;;5014080;28;20634;-77
2022/11/15 09:59:25;;;;;;;33.33;24.43;;;11.40;99.90;;;;;;5013571;28;20057;-76
2022/11/15 10:02:03;;;;;;;32.90;24.93;;;11.40;99.90;;;;;;5030160;28;20312;-77
2022/11/15 10:04:30;;;;;;;28.30;22.70;;;11.40;99.90;;;;;;5012854;28;20872;-74
2022/11/15 10:07:24;;;;;;;29.83;22.63;;;11.50;99.90;;;;;;5014049;28;20363;-72
2022/11/15 10:09:59;;;;;;;31.53;22.77;;;11.50;99.90;;;;;;5014541;28;20347;-75
2022/11/15 10:12:25;;;;;;;;;;;11.50;99.90;;;;;;5015077;28;20300;-80
2022/11/15 10:15:04;;;;;;;30.60;23.33;;;11.50;99.90;;;;;;5013108;28;20238;-76
2022/11/15 10:18:00;;;;;;;27.83;22.43;;;11.50;99.90;;;;;;5014963;28;20376;-76
2022/11/15 10:20:29;;;;;;;24.88;20.92;;;11.50;99.90;;;;;;5014118;28;20340;-80
2022/11/15 10:23:05;;;;;;;26.50;20.17;;;11.50;99.90;;;;;;5015147;28;20050;-76
2022/11/15 10:25:33;;;;;;;29.07;21.20;;;11.50;99.90;;;;;;5013343;28;20342;-76
2022/11/15 10:28:28;;;;;;;30.93;20.93;;;11.60;99.90;;;;;;5013011;28;20293;-75
2022/11/15 10:30:59;;;;;;;27.00;19.83;;;11.60;99.90;;;;;;5013265;28;20292;-75
2022/11/15 10:33:39;;;;;;;30.07;20.53;;;11.60;99.90;;;;;;5014101;28;20336;-75
2022/11/15 10:36:20;;;;;;;25.73;19.53;;;11.60;99.90;;;;;;5012769;28;20288;-74
2022/11/15 10:38:49;;;;;;;27.57;19.40;;;11.70;99.90;;;;;;5012905;28;20285;-73
2022/11/15 10:41:20;;;;;;;25.70;19.93;;;11.70;99.90;;;;;;5012870;28;20308;-77
2022/11/15 10:44:01;;;;;;;27.90;19.63;;;11.70;99.90;;;;;;5013012;28;20430;-77
2022/11/15 10:46:27;;;;;;;29.37;20.17;;;11.80;99.90;;;;;;5014297;28;20741;-79
2022/11/15 10:48:52;;;;;;;27.90;18.93;;;11.80;99.90;;;;;;5012970;28;20299;-79
2022/11/15 10:51:54;;;;;;;27.57;20.80;;;11.80;99.90;;;;;;5014477;28;20049;-78
2022/11/15 10:54:41;;;;;;;27.63;19.30;;;11.80;99.90;;;;;;5014501;28;20060;-78
2022/11/15 10:57:13;;;;;;;26.90;18.23;;;11.90;99.90;;;;;;5012741;28;20293;-79
2022/11/15 10:59:44;;;;;;;26.40;17.63;;;11.90;99.90;;;;;;5013717;28;20293;-78
2022/11/15 11:02:30;;;;;;;25.07;18.40;;;11.90;99.90;;;;;;5012690;28;20296;-78
2022/11/15 11:04:56;;;;;;;21.47;17.47;;;12.00;99.90;;;;;;5012928;28;20305;-78
2022/11/15 11:07:28;;;;;;;22.60;16.67;;;12.00;99.90;;;;;;5014493;28;20291;-77
2022/11/15 11:10:19;;;;;;;20.83;16.00;;;12.00;99.90;;;;;;5013501;28;20490;-77
2022/11/15 11:12:45;;;;;;;23.77;15.67;;;12.00;99.90;;;;;;5012830;28;20761;-77
2022/11/15 11:15:15;;;;;;;22.37;16.23;;;12.10;99.90;;;;;;4996253;28;20338;-76
2022/11/15 11:18:18;;;;;;;20.87;14.57;;;12.10;99.90;;;;;;5012780;28;20068;-81
2022/11/15 11:20:57;;;;;;;19.70;14.40;;;12.20;99.90;;;;;;5001601;28;20340;-77
2022/11/15 11:23:41;;;;;;;18.00;13.20;;;12.20;99.90;;;;;;5013543;28;20287;-76
2022/11/15 11:26:43;;;;;;;20.43;13.27;;;12.20;99.90;;;;;;5015386;28;20316;-74
2022/11/15 11:29:30;;;;;;;16.60;11.97;;;12.20;99.90;;;;;;5018057;28;20357;-82
2022/11/15 11:32:27;;;;;;;14.83;11.17;;;12.20;99.90;;;;;;5016204;28;20304;-79
2022/11/15 11:35:01;;;;;;;14.77;11.47;;;12.10;99.90;;;;;;5000851;28;20362;-81
2022/11/15 11:37:57;;;;;;;13.02;9.45;;;12.10;99.90;;;;;;5000376;28;20293;-81
2022/11/15 11:40:45;;;;;;;13.95;10.13;;;12.10;99.90;;;;;;4996864;28;20132;-82
2022/11/15 11:43:33;;;;;;;12.33;9.67;;;12.10;99.90;;;;;;5017158;28;20459;-74
2022/11/15 11:46:44;;;;;;;15.50;8.40;;;12.10;99.90;;;;;;4996668;28;20301;-75
2022/11/15 11:49:37;;;;;;;17.43;8.67;;;12.10;99.90;;;;;;5016169;28;20297;-73
2022/11/15 11:52:12;;;;;;;10.93;8.27;;;12.10;99.90;;;;;;5017284;28;20284;-75
2022/11/15 11:54:57;;;;;;;12.57;7.67;;;12.10;99.90;;;;;;5016891;28;20284;-79
2022/11/15 11:57:37;;;;;;;13.20;7.10;;;12.10;99.90;;;;;;5016977;28;20362;-76
2022/11/15 12:00:23;;;;;;;11.17;8.00;;;12.00;99.90;;;;;;5016792;28;20344;-76
2022/11/15 12:03:27;;;;;;;10.73;7.43;;;12.00;99.90;;;;;;5016876;28;20328;-76
2022/11/15 12:05:57;;;;;;;12.40;7.20;;;12.00;99.90;;;;;;5013924;28;20289;-76
2022/11/15 12:08:32;;;;;;;10.83;7.50;;;12.00;99.90;;;;;;5017010;28;20284;-76
2022/11/15 12:11:17;;;;;;;13.93;8.57;;;12.00;99.90;;;;;;5015812;28;20760;-78
2022/11/15 12:13:44;;;;;;;10.77;7.68;;;12.10;99.90;;;;;;5015712;28;20042;-77
2022/11/15 12:16:21;;;;;;;16.17;7.37;;;12.10;99.90;;;;;;5016659;28;20107;-76
2022/11/15 12:18:53;;;;;;;11.17;6.93;;;12.20;99.90;;;;;;5016442;28;20393;-77
2022/11/15 12:21:34;;;;;;;11.57;6.87;;;12.20;99.90;;;;;;5016945;28;20307;-77
2022/11/15 12:24:26;;;;;;;9.97;6.70;;;12.30;99.90;;;;;;5016217;28;20787;-76
2022/11/15 12:27:24;;;;;;;8.97;6.43;;;12.30;99.90;;;;;;5016185;28;20760;-77
2022/11/15 12:29:55;;;;;;;10.30;6.73;;;12.30;99.90;;;;;;5011488;28;20303;-77
2022/11/15 12:32:26;;;;;;;12.73;7.43;;;12.30;99.90;;;;;;5015686;28;20668;-77
2022/11/15 12:34:53;;;;;;;12.77;7.53;;;12.30;99.90;;;;;;5016064;28;20300;-72
2022/11/15 12:37:37;;;;;;;10.73;6.67;;;12.30;99.90;;;;;;5015037;28;20295;-73
2022/11/15 12:40:09;;;;;;;14.77;7.00;;;12.40;99.90;;;;;;5015993;28;20462;-82
2022/11/15 12:43:14;;;;;;;10.47;5.67;;;12.40;99.90;;;;;;4998937;28;20367;-81
2022/11/15 12:45:42;;;;;;;10.97;5.67;;;12.50;99.90;;;;;;4997848;28;20281;-83
2022/11/15 12:48:17;;;;;;;11.37;6.10;;;12.60;99.90;;;;;;4997525;28;20824;-82
2022/11/15 12:50:54;;;;;;;9.85;4.38;;;12.60;99.90;;;;;;5005429;28;20304;-75
2022/11/15 12:53:27;;;;;;;6.70;3.57;;;12.60;99.90;;;;;;5015882;28;20133;-76
2022/11/15 12:56:11;;;;;;;8.97;4.50;;;12.60;99.90;;;;;;5015800;28;20321;-76
2022/11/15 12:58:50;;;;;;;7.13;3.30;;;12.60;99.90;;;;;;5015617;28;20375;-75
2022/11/15 13:01:34;;;;;;;6.67;3.20;;;12.50;99.90;;;;;;5015799;28;20846;-75
2022/11/15 13:04:18;;;;;;;9.87;3.07;;;12.50;99.90;;;;;;5015716;28;20333;-75
2022/11/15 13:07:10;;;;;;;6.50;3.50;;;12.40;99.90;;;;;;5015298;28;20672;-75
2022/11/15 13:09:35;;;;;;;5.67;3.03;;;12.40;99.90;;;;;;5015405;28;20300;-75
2022/11/15 13:12:27;;;;;;;5.40;3.43;;;12.40;99.90;;;;;;5015552;28;20281;-75